| time (UTC) | temp F | wind direction | speed MPH | gust MPH | rain 1hr in | rain 24hr in | rain mn in | humidity % | barometer mb |
| 20260506031743 | 58 | 263 | 3.0 | 10.0 | 0.00 | 0.05 | 0.05 | 82 | 1016.6 |
| 20260506031242 | 58 | 292 | 2.0 | 6.0 | 0.00 | 0.05 | 0.05 | 82 | 1016.6 |
| 20260506031234 | 58 | 236 | 3.0 | 10.0 | 0.00 | 0.05 | 0.05 | 82 | 1016.6 |
| 20260506030235 | 58 | 242 | 2.0 | 7.0 | 0.00 | 0.05 | 0.05 | 82 | 1016.4 |
| 20260506025733 | 58 | 262 | 3.0 | 9.0 | 0.00 | 0.05 | 0.05 | 82 | 1016.4 |
| 20260506025234 | 58 | 228 | 4.0 | 12.0 | 0.00 | 0.05 | 0.05 | 82 | 1016.4 |
| 20260506024731 | 58 | 265 | 4.0 | 12.0 | 0.00 | 0.05 | 0.05 | 81 | 1016.3 |
| 20260506024229 | 58 | 247 | 4.0 | 9.0 | 0.00 | 0.05 | 0.05 | 81 | 1016.3 |
| 20260506023736 | 59 | 229 | 6.0 | 13.0 | 0.00 | 0.05 | 0.05 | 79 | 1016.2 |
| 20260506023730 | 59 | 200 | 5.0 | 11.0 | 0.00 | 0.05 | 0.05 | 80 | 1016.3 |
| 20260506022727 | 59 | 284 | 6.0 | 13.0 | 0.00 | 0.05 | 0.05 | 79 | 1016.2 |
| 20260506022231 | 60 | 230 | 6.0 | 14.0 | 0.00 | 0.05 | 0.05 | 77 | 1016.3 |
| 20260506022226 | 60 | 226 | 6.0 | 14.0 | 0.00 | 0.05 | 0.05 | 78 | 1016.2 |
| 20260506021226 | 60 | 221 | 6.0 | 15.0 | 0.00 | 0.05 | 0.05 | 76 | 1016.3 |
| 20260506020725 | 61 | 191 | 6.0 | 15.0 | 0.00 | 0.05 | 0.05 | 76 | 1016.3 |
| 20260506020231 | 61 | 229 | 7.0 | 15.0 | 0.00 | 0.05 | 0.05 | 74 | 1016.2 |
| 20260506020224 | 61 | 224 | 7.0 | 15.0 | 0.00 | 0.05 | 0.05 | 76 | 1016.2 |
| 20260506015222 | 61 | 193 | 6.0 | 14.0 | 0.00 | 0.05 | 0.05 | 73 | 1016.2 |
| 20260506014729 | 62 | 247 | 5.0 | 12.0 | 0.00 | 0.05 | 0.05 | 73 | 1016.1 |
| 20260506014722 | 62 | 221 | 6.0 | 14.0 | 0.00 | 0.05 | 0.05 | 73 | 1016.1 |
| 20260506013721 | 62 | 206 | 4.0 | 12.0 | 0.00 | 0.05 | 0.05 | 72 | 1016.1 |
| 20260506013219 | 62 | 231 | 4.0 | 10.0 | 0.00 | 0.05 | 0.05 | 72 | 1016.0 |
| 20260506012718 | 62 | 277 | 5.0 | 11.0 | 0.00 | 0.05 | 0.05 | 71 | 1016.0 |
| 20260506012225 | 62 | 229 | 5.0 | 12.0 | 0.00 | 0.05 | 0.05 | 72 | 1015.9 |
| 20260506012219 | 62 | 153 | 5.0 | 12.0 | 0.00 | 0.05 | 0.05 | 72 | 1016.0 |
| 20260506011216 | 62 | 165 | 5.0 | 11.0 | 0.00 | 0.05 | 0.05 | 72 | 1015.9 |
| 20260506010721 | 62 | 219 | 5.0 | 13.0 | 0.00 | 0.05 | 0.05 | 73 | 1015.9 |
| 20260506010714 | 62 | 253 | 6.0 | 13.0 | 0.00 | 0.05 | 0.05 | 73 | 1015.9 |
| 20260506005713 | 62 | 229 | 5.0 | 13.0 | 0.00 | 0.05 | 0.05 | 72 | 1015.9 |
| 20260506005210 | 62 | 226 | 4.0 | 10.0 | 0.00 | 0.05 | 0.05 | 72 | 1015.9 |
| 20260506005206 | 62 | 184 | 5.0 | 13.0 | 0.00 | 0.05 | 0.05 | 72 | 1015.9 |
| 20260506004206 | 62 | 195 | 4.0 | 12.0 | 0.00 | 0.05 | 0.05 | 72 | 1015.9 |
| 20260506003704 | 62 | 217 | 4.0 | 12.0 | 0.00 | 0.05 | 0.05 | 72 | 1015.9 |
| 20260506003205 | 62 | 222 | 5.0 | 14.0 | 0.00 | 0.05 | 0.05 | 73 | 1015.8 |
| 20260506002705 | 62 | 176 | 7.0 | 14.0 | 0.00 | 0.05 | 0.05 | 72 | 1015.8 |
| 20260506002202 | 62 | 247 | 7.0 | 17.0 | 0.00 | 0.05 | 0.05 | 73 | 1015.8 |
| 20260506001710 | 62 | 239 | 7.0 | 19.0 | 0.00 | 0.05 | 0.05 | 73 | 1015.7 |
| 20260506001702 | 62 | 248 | 7.0 | 17.0 | 0.00 | 0.05 | 0.05 | 73 | 1015.7 |
| 20260506000701 | 62 | 271 | 7.0 | 19.0 | 0.00 | 0.05 | 0.05 | 73 | 1015.7 |
| 20260506000200 | 62 | 231 | 6.0 | 15.0 | 0.00 | 0.05 | 0.05 | 73 | 1015.4 |
| 20260505235703 | 62 | 197 | 5.0 | 14.0 | 0.00 | 0.05 | 0.05 | 73 | 1015.4 |
| 20260505235655 | 62 | 264 | 5.0 | 14.0 | 0.00 | 0.05 | 0.05 | 74 | 1015.4 |
| 20260505234655 | 61 | 169 | 7.0 | 15.0 | 0.00 | 0.05 | 0.05 | 75 | 1015.8 |
| 20260505234154 | 61 | 224 | 8.0 | 15.0 | 0.00 | 0.05 | 0.05 | 74 | 1015.8 |
| 20260505233701 | 61 | 223 | 5.0 | 14.0 | 0.00 | 0.05 | 0.05 | 74 | 1015.9 |
| 20260505233656 | 61 | 271 | 7.0 | 13.0 | 0.00 | 0.05 | 0.05 | 74 | 1015.8 |
| 20260505233153 | 61 | 222 | 6.0 | 14.0 | 0.00 | 0.05 | 0.05 | 74 | 1015.9 |
| 20260505232151 | 61 | 198 | 6.0 | 14.0 | 0.00 | 0.05 | 0.05 | 74 | 1015.9 |
| 20260505231652 | 61 | 254 | 6.0 | 19.0 | 0.00 | 0.05 | 0.05 | 74 | 1015.9 |
| 20260505231150 | 61 | 207 | 6.0 | 19.0 | 0.00 | 0.05 | 0.05 | 74 | 1015.9 |
| 20260505230649 | 62 | 208 | 5.0 | 13.0 | 0.00 | 0.05 | 0.05 | 74 | 1015.9 |
| 20260505230149 | 62 | 259 | 6.0 | 13.0 | 0.00 | 0.05 | 0.05 | 74 | 1015.8 |
| 20260505225648 | 62 | 208 | 6.0 | 12.0 | 0.00 | 0.05 | 0.05 | 74 | 1015.8 |
| 20260505225147 | 62 | 213 | 6.0 | 14.0 | 0.00 | 0.05 | 0.05 | 74 | 1015.8 |
| 20260505224651 | 62 | 282 | 7.0 | 15.0 | 0.00 | 0.05 | 0.05 | 73 | 1015.8 |
| 20260505224644 | 62 | 139 | 7.0 | 14.0 | 0.00 | 0.05 | 0.05 | 73 | 1015.8 |
| 20260505223645 | 62 | 234 | 6.0 | 15.0 | 0.00 | 0.05 | 0.05 | 73 | 1015.8 |
| 20260505223145 | 63 | 205 | 5.0 | 14.0 | 0.00 | 0.05 | 0.05 | 73 | 1015.9 |
| 20260505222644 | 63 | 200 | 5.0 | 11.0 | 0.00 | 0.05 | 0.05 | 73 | 1015.9 |
| 20260505222144 | 63 | 233 | 6.0 | 13.0 | 0.00 | 0.05 | 0.05 | 73 | 1015.9 |
| 20260505221642 | 63 | 193 | 5.0 | 13.0 | 0.00 | 0.05 | 0.05 | 72 | 1015.8 |
| 20260505221144 | 63 | 240 | 4.0 | 12.0 | 0.00 | 0.05 | 0.05 | 71 | 1015.8 |
| 20260505221137 | 63 | 188 | 4.0 | 12.0 | 0.00 | 0.05 | 0.05 | 72 | 1015.8 |
| 20260505220141 | 64 | 147 | 4.0 | 10.0 | 0.00 | 0.05 | 0.05 | 70 | 1015.9 |
| 20260505220133 | 64 | 238 | 4.0 | 11.0 | 0.00 | 0.05 | 0.05 | 68 | 1015.9 |
| 20260505215749 | 64 | 230 | 4.0 | 10.0 | 0.00 | 0.05 | 0.05 | 70 | 1015.9 |
| 20260505214627 | 65 | 232 | 4.0 | 11.0 | 0.00 | 0.05 | 0.05 | 65 | 1015.9 |
| 20260505214129 | 65 | 307 | 4.0 | 7.0 | 0.00 | 0.05 | 0.05 | 65 | 1015.9 |
| 20260505213628 | 65 | 314 | 4.0 | 10.0 | 0.00 | 0.05 | 0.05 | 66 | 1015.9 |
| 20260505213128 | 65 | 306 | 4.0 | 10.0 | 0.00 | 0.05 | 0.05 | 65 | 1016.0 |
| 20260505212628 | 65 | 309 | 3.0 | 10.0 | 0.00 | 0.05 | 0.05 | 65 | 1016.0 |
| 20260505212125 | 65 | 225 | 2.0 | 6.0 | 0.00 | 0.05 | 0.05 | 67 | 1016.0 |
| 20260505211623 | 64 | 299 | 3.0 | 11.0 | 0.00 | 0.05 | 0.05 | 67 | 1016.1 |
| 20260505211122 | 64 | 266 | 4.0 | 11.0 | 0.00 | 0.05 | 0.05 | 66 | 1016.1 |
| 20260505210628 | 64 | 271 | 3.0 | 7.0 | 0.00 | 0.05 | 0.05 | 70 | 1015.9 |
| 20260505210621 | 64 | 300 | 3.0 | 7.0 | 0.00 | 0.05 | 0.05 | 66 | 1016.1 |
| 20260505210119 | 64 | 287 | 2.0 | 7.0 | 0.00 | 0.05 | 0.05 | 68 | 1015.9 |
| 20260505205119 | 63 | 284 | 4.0 | 12.0 | 0.00 | 0.05 | 0.05 | 71 | 1015.9 |
| 20260505204619 | 63 | 227 | 3.0 | 12.0 | 0.00 | 0.05 | 0.05 | 69 | 1015.9 |
| 20260505204120 | 64 | 266 | 3.0 | 7.0 | 0.00 | 0.05 | 0.05 | 69 | 1015.9 |
| 20260505203625 | 65 | 222 | 3.0 | 10.0 | 0.00 | 0.05 | 0.05 | 66 | 1015.9 |
| 20260505203615 | 64 | 267 | 4.0 | 10.0 | 0.00 | 0.05 | 0.05 | 66 | 1015.9 |
| 20260505202611 | 65 | 270 | 2.0 | 9.0 | 0.00 | 0.05 | 0.05 | 68 | 1015.9 |
| 20260505202112 | 64 | 328 | 3.0 | 9.0 | 0.00 | 0.05 | 0.05 | 68 | 1015.9 |
| 20260505201610 | 64 | 239 | 3.0 | 9.0 | 0.00 | 0.05 | 0.05 | 65 | 1016.0 |
| 20260505201106 | 65 | 219 | 2.0 | 10.0 | 0.00 | 0.05 | 0.05 | 64 | 1016.0 |
| 20260505200605 | 65 | 285 | 3.0 | 10.0 | 0.00 | 0.05 | 0.05 | 66 | 1016.0 |
| 20260505200107 | 66 | 321 | 4.0 | 11.0 | 0.00 | 0.05 | 0.05 | 63 | 1015.9 |
| 20260505195604 | 66 | 296 | 4.0 | 11.0 | 0.00 | 0.05 | 0.05 | 65 | 1015.9 |
| 20260505195105 | 65 | 304 | 4.0 | 9.0 | 0.00 | 0.05 | 0.05 | 64 | 1015.9 |
| 20260505194603 | 65 | 276 | 5.0 | 12.0 | 0.00 | 0.05 | 0.05 | 65 | 1016.0 |
| 20260505194105 | 66 | 276 | 5.0 | 12.0 | 0.00 | 0.05 | 0.05 | 65 | 1016.0 |
| 20260505193604 | 66 | 274 | 4.0 | 16.0 | 0.00 | 0.05 | 0.05 | 65 | 1016.0 |
| 20260505193101 | 66 | 301 | 4.0 | 16.0 | 0.00 | 0.05 | 0.05 | 64 | 1015.9 |
| 20260505192557 | 66 | 246 | 4.0 | 10.0 | 0.00 | 0.05 | 0.05 | 66 | 1015.9 |
| 20260505192057 | 65 | 330 | 4.0 | 12.0 | 0.00 | 0.05 | 0.05 | 69 | 1015.9 |
| 20260505191558 | 64 | 300 | 5.0 | 12.0 | 0.00 | 0.05 | 0.05 | 69 | 1015.9 |
| 20260505191057 | 64 | 257 | 4.0 | 11.0 | 0.00 | 0.05 | 0.05 | 68 | 1015.9 |
| 20260505190602 | 63 | 288 | 4.0 | 11.0 | 0.00 | 0.05 | 0.05 | 72 | 1015.8 |
| 20260505190556 | 64 | 306 | 3.0 | 11.0 | 0.00 | 0.05 | 0.05 | 72 | 1015.9 |
| 20260505190222 | 63 | 220 | 4.0 | 10.0 | 0.00 | 0.05 | 0.05 | 72 | 1015.8 |
| 20260505185100 | 63 | 219 | 3.0 | 10.0 | 0.00 | 0.05 | 0.05 | 73 | 1015.8 |
| 20260505185053 | 63 | 277 | 3.0 | 9.0 | 0.00 | 0.05 | 0.05 | 71 | 1015.8 |
| 20260505184053 | 62 | 281 | 3.0 | 10.0 | 0.00 | 0.05 | 0.05 | 74 | 1015.8 |
| 20260505183600 | 61 | 230 | 4.0 | 11.0 | 0.00 | 0.05 | 0.05 | 76 | 1015.8 |
| 20260505183554 | 62 | 236 | 4.0 | 11.0 | 0.00 | 0.05 | 0.05 | 75 | 1015.8 |
| 20260505182555 | 61 | 242 | 4.0 | 11.0 | 0.00 | 0.05 | 0.05 | 75 | 1015.8 |
| 20260505182054 | 61 | 157 | 3.0 | 9.0 | 0.00 | 0.05 | 0.05 | 76 | 1015.8 |
| 20260505181554 | 62 | 259 | 3.0 | 9.0 | 0.00 | 0.05 | 0.05 | 78 | 1015.7 |
| 20260505181053 | 61 | 285 | 3.0 | 9.0 | 0.00 | 0.05 | 0.05 | 78 | 1015.7 |
| 20260505180551 | 61 | 213 | 3.0 | 10.0 | 0.00 | 0.05 | 0.05 | 81 | 1015.7 |
| 20260505180213 | 59 | 222 | 3.0 | 7.0 | 0.00 | 0.05 | 0.05 | 85 | 1015.4 |
| 20260505180110 | 60 | 227 | 2.0 | 8.0 | 0.00 | 0.05 | 0.05 | 84 | 1015.4 |
| 20260505174552 | 58 | 215 | 3.0 | 11.0 | 0.00 | 0.05 | 0.05 | 86 | 1015.3 |
| 20260505174050 | 58 | 195 | 3.0 | 11.0 | 0.00 | 0.05 | 0.05 | 86 | 1015.3 |
| 20260505173551 | 58 | 268 | 2.0 | 6.0 | 0.00 | 0.05 | 0.05 | 86 | 1015.3 |
| 20260505173058 | 57 | 221 | 2.0 | 5.0 | 0.00 | 0.05 | 0.05 | 87 | 1015.3 |
| 20260505173051 | 58 | 273 | 2.0 | 5.0 | 0.00 | 0.05 | 0.05 | 87 | 1015.3 |
| 20260505172052 | 57 | 0.0 | 2.0 | 0.00 | 0.05 | 0.05 | 87 | 1015.3 | |
| 20260505171000 | 57 | 237 | 2.0 | 6.0 | 0.00 | 0.05 | 0.05 | 88 | 1015.3 |
| 20260505170442 | 57 | 228 | 2.0 | 5.0 | 0.00 | 0.05 | 0.05 | 89 | 1015.3 |
| 20260505170435 | 56 | 276 | 2.0 | 7.0 | 0.00 | 0.05 | 0.05 | 89 | 1015.3 |
| 20260505165433 | 56 | 184 | 1.0 | 7.0 | 0.00 | 0.05 | 0.05 | 89 | 1015.3 |
| 20260505164934 | 56 | 237 | 2.0 | 9.0 | 0.00 | 0.05 | 0.05 | 89 | 1015.3 |
| 20260505164430 | 56 | 283 | 3.0 | 9.0 | 0.00 | 0.05 | 0.05 | 89 | 1015.3 |
| 20260505163919 | 56 | 206 | 3.0 | 7.0 | 0.00 | 0.05 | 0.05 | 88 | 1015.3 |
| 20260505163420 | 56 | 232 | 3.0 | 7.0 | 0.00 | 0.05 | 0.05 | 88 | 1015.1 |
| 20260505162920 | 56 | 223 | 2.0 | 6.0 | 0.00 | 0.05 | 0.05 | 87 | 1015.1 |
| 20260505162419 | 56 | 264 | 2.0 | 7.0 | 0.00 | 0.05 | 0.05 | 88 | 1015.1 |
| 20260505161919 | 56 | 241 | 3.0 | 7.0 | 0.00 | 0.05 | 0.05 | 88 | 1014.8 |
| 20260505161408 | 56 | 226 | 3.0 | 6.0 | 0.00 | 0.05 | 0.05 | 88 | 1014.8 |
| 20260505160915 | 55 | 224 | 3.0 | 8.0 | 0.00 | 0.05 | 0.05 | 88 | 1014.8 |
| 20260505160908 | 56 | 189 | 3.0 | 6.0 | 0.00 | 0.05 | 0.05 | 88 | 1014.8 |
| 20260505160408 | 56 | 238 | 3.0 | 6.0 | 0.00 | 0.05 | 0.05 | 88 | 1014.8 |
| 20260505152902 | 55 | 226 | 4.0 | 10.0 | 0.00 | 0.05 | 0.05 | 88 | 1014.7 |
| 20260505152359 | 55 | 257 | 3.0 | 10.0 | 0.00 | 0.05 | 0.05 | 88 | 1014.7 |
| 20260505151856 | 55 | 221 | 3.0 | 9.0 | 0.00 | 0.05 | 0.05 | 88 | 1014.6 |
| 20260505151354 | 55 | 224 | 3.0 | 7.0 | 0.00 | 0.05 | 0.05 | 89 | 1014.6 |
| 20260505150850 | 55 | 219 | 2.0 | 6.0 | 0.00 | 0.05 | 0.05 | 89 | 1014.6 |
| 20260505150350 | 55 | 232 | 2.0 | 4.0 | 0.00 | 0.05 | 0.05 | 89 | 1014.4 |
| 20260505140319 | 53 | 236 | 1.0 | 3.0 | 0.00 | 0.05 | 0.05 | 90 | 1014.2 |
| 20260505140306 | 53 | 232 | 1.0 | 3.0 | 0.00 | 0.05 | 0.05 | 90 | 1014.2 |
| 20260505130158 | 53 | 241 | 0.0 | 2.0 | 0.00 | 0.05 | 0.05 | 91 | 1014.2 |
| 20260505124640 | 53 | 217 | 0.0 | 1.0 | 0.00 | 0.05 | 0.05 | 91 | 1014.2 |
| 20260505124634 | 53 | 217 | 0.0 | 2.0 | 0.00 | 0.05 | 0.05 | 91 | 1014.2 |
| 20260505123627 | 53 | 238 | 0.0 | 2.0 | 0.00 | 0.05 | 0.05 | 91 | 1014.2 |
| 20260505123122 | 53 | 238 | 0.0 | 2.0 | 0.00 | 0.05 | 0.05 | 91 | 1014.0 |
| 20260505122620 | 53 | 238 | 0.0 | 1.0 | 0.00 | 0.05 | 0.05 | 91 | 1014.0 |
| 20260505122612 | 53 | 238 | 0.0 | 2.0 | 0.00 | 0.05 | 0.05 | 91 | 1014.0 |
| 20260505121612 | 53 | 238 | 1.0 | 6.0 | 0.00 | 0.05 | 0.05 | 92 | 1013.8 |
| 20260505121056 | 53 | 238 | 2.0 | 7.0 | 0.00 | 0.05 | 0.05 | 92 | 1013.8 |
| 20260505120601 | 53 | 177 | 1.0 | 4.0 | 0.01 | 0.05 | 0.05 | 92 | 1014.2 |
| 20260505120554 | 53 | 231 | 1.0 | 7.0 | 0.00 | 0.05 | 0.05 | 92 | 1013.8 |
| 20260505115541 | 53 | 198 | 0.0 | 2.0 | 0.01 | 0.05 | 0.05 | 92 | 1014.2 |
| 20260505115534 | 53 | 251 | 0.0 | 2.0 | 0.01 | 0.05 | 0.05 | 92 | 1014.2 |
| 20260505114522 | 53 | 251 | 0.0 | 1.0 | 0.01 | 0.05 | 0.05 | 92 | 1014.3 |
| 20260505113953 | 53 | 251 | 0.0 | 2.0 | 0.01 | 0.05 | 0.05 | 92 | 1014.3 |
| 20260505113930 | 53 | 250 | 0.0 | 1.0 | 0.01 | 0.05 | 0.05 | 92 | 1014.3 |
| 20260505113420 | 53 | 250 | 0.0 | 1.0 | 0.01 | 0.05 | 0.05 | 92 | 1014.3 |
| 20260505112411 | 53 | 250 | 0.0 | 4.0 | 0.01 | 0.05 | 0.05 | 92 | 1014.3 |
| 20260505111905 | 53 | 250 | 0.0 | 4.0 | 0.01 | 0.05 | 0.05 | 92 | 1014.3 |
| 20260505111412 | 53 | 241 | 0.0 | 2.0 | 0.01 | 0.05 | 0.05 | 92 | 1014.3 |
| 20260505110903 | 53 | 243 | 0.0 | 3.0 | 0.01 | 0.05 | 0.05 | 92 | 1014.3 |
| 20260505110416 | 53 | 243 | 1.0 | 3.0 | 0.01 | 0.05 | 0.05 | 92 | 1014.2 |
| 20260505101811 | 53 | 284 | 0.0 | 4.0 | 0.01 | 0.04 | 0.04 | 91 | 1014.3 |
| 20260505101317 | 53 | 234 | 0.0 | 2.0 | 0.01 | 0.04 | 0.04 | 91 | 1014.3 |
| 20260505101311 | 53 | 284 | 0.0 | 4.0 | 0.01 | 0.04 | 0.04 | 91 | 1014.3 |
| 20260505100925 | 53 | 247 | 1.0 | 2.0 | 0.01 | 0.04 | 0.04 | 90 | 1014.3 |
| 20260505095808 | 53 | 246 | 0.0 | 2.0 | 0.01 | 0.04 | 0.04 | 90 | 1014.3 |
| 20260505095310 | 53 | 246 | 1.0 | 5.0 | 0.02 | 0.04 | 0.04 | 90 | 1014.3 |
| 20260505094810 | 53 | 246 | 2.0 | 5.0 | 0.01 | 0.03 | 0.03 | 90 | 1014.5 |
| 20260505094802 | 53 | 210 | 1.0 | 4.0 | 0.02 | 0.03 | 0.03 | 90 | 1014.5 |
| 20260505093802 | 53 | 230 | 1.0 | 3.0 | 0.02 | 0.03 | 0.03 | 90 | 1014.5 |
| 20260505093755 | 53 | 241 | 1.0 | 4.0 | 0.02 | 0.03 | 0.03 | 90 | 1014.8 |
| 20260505092746 | 53 | 236 | 1.0 | 4.0 | 0.02 | 0.03 | 0.03 | 90 | 1014.8 |
| 20260505092246 | 53 | 235 | 2.0 | 5.0 | 0.02 | 0.03 | 0.03 | 90 | 1014.8 |
| 20260505091747 | 53 | 263 | 2.0 | 5.0 | 0.02 | 0.03 | 0.03 | 90 | 1014.8 |
| 20260505091247 | 53 | 222 | 2.0 | 6.0 | 0.02 | 0.03 | 0.03 | 89 | 1014.8 |
| 20260505090745 | 53 | 240 | 2.0 | 6.0 | 0.02 | 0.03 | 0.03 | 89 | 1014.8 |
| 20260505090245 | 53 | 230 | 2.0 | 5.0 | 0.02 | 0.03 | 0.03 | 89 | 1014.9 |
| 20260505085751 | 53 | 223 | 1.0 | 5.0 | 0.01 | 0.02 | 0.02 | 88 | 1014.9 |
| 20260505085745 | 53 | 242 | 2.0 | 5.0 | 0.02 | 0.03 | 0.03 | 89 | 1014.9 |
| 20260505084743 | 53 | 248 | 1.0 | 5.0 | 0.01 | 0.01 | 0.02 | 88 | 1014.8 |
| 20260505084239 | 53 | 236 | 1.0 | 3.0 | 0.01 | 0.01 | 0.01 | 88 | 1014.8 |
| 20260505083737 | 53 | 212 | 1.0 | 3.0 | 0.01 | 0.01 | 0.01 | 88 | 1014.8 |
| 20260505083224 | 53 | 241 | 0.0 | 3.0 | 0.01 | 0.01 | 0.01 | 88 | 1015.0 |
| 20260505082726 | 53 | 247 | 1.0 | 4.0 | 0.01 | 0.01 | 0.01 | 88 | 1015.0 |
| 20260505082719 | 53 | 236 | 0.0 | 3.0 | 0.01 | 0.01 | 0.01 | 88 | 1015.0 |
| 20260505082337 | 53 | 256 | 1.0 | 4.0 | 0.01 | 0.01 | 0.01 | 88 | 1015.3 |
| 20260505081211 | 53 | 213 | 1.0 | 4.0 | 0.01 | 0.01 | 0.01 | 88 | 1015.3 |
| 20260505080711 | 53 | 250 | 1.0 | 3.0 | 0.01 | 0.01 | 0.01 | 87 | 1015.3 |
| 20260505080203 | 53 | 231 | 2.0 | 5.0 | 0.01 | 0.01 | 0.01 | 87 | 1015.3 |
| 20260505080159 | 53 | 228 | 2.0 | 4.0 | 0.01 | 0.01 | 0.01 | 87 | 1015.3 |
| 20260505075159 | 53 | 236 | 0.0 | 3.0 | 0.00 | 0.00 | 0.00 | 85 | 1015.4 |
| 20260505075153 | 53 | 233 | 1.0 | 5.0 | 0.01 | 0.01 | 0.01 | 86 | 1015.3 |
| 20260505074153 | 54 | 226 | 1.0 | 4.0 | 0.00 | 0.00 | 0.00 | 85 | 1015.4 |
| 20260505073651 | 54 | 248 | 1.0 | 3.0 | 0.00 | 0.00 | 0.00 | 83 | 1015.4 |
| 20260505073643 | 54 | 235 | 1.0 | 4.0 | 0.00 | 0.00 | 0.00 | 84 | 1015.4 |
| 20260505073125 | 54 | 250 | 1.0 | 6.0 | 0.00 | 0.00 | 0.00 | 82 | 1015.4 |
| 20260505072123 | 54 | 279 | 1.0 | 6.0 | 0.00 | 0.00 | 0.00 | 81 | 1015.4 |
| 20260505071610 | 54 | 274 | 2.0 | 6.0 | 0.00 | 0.00 | 0.00 | 80 | 1015.3 |
| 20260505071054 | 54 | 289 | 2.0 | 6.0 | 0.00 | 0.00 | 0.00 | 80 | 1015.3 |
| 20260505070559 | 54 | 295 | 1.0 | 4.0 | 0.00 | 0.00 | 0.00 | 81 | 1015.3 |
| 20260505070552 | 54 | 237 | 1.0 | 4.0 | 0.00 | 0.00 | 0.00 | 80 | 1015.3 |
| 20260505065549 | 54 | 273 | 1.0 | 5.0 | 0.00 | 0.00 | 0.00 | 81 | 1015.3 |
| 20260505065544 | 54 | 283 | 1.0 | 4.0 | 0.00 | 0.00 | 0.00 | 81 | 1015.3 |
| 20260505064550 | 55 | 245 | 1.0 | 4.0 | 0.00 | 0.00 | 0.00 | 80 | 1015.3 |
| 20260505064543 | 55 | 274 | 1.0 | 5.0 | 0.00 | 0.00 | 0.00 | 81 | 1015.3 |
| 20260505063551 | 55 | 258 | 2.0 | 5.0 | 0.00 | 0.00 | 0.00 | 79 | 1015.0 |
| 20260505063543 | 55 | 258 | 2.0 | 5.0 | 0.00 | 0.00 | 0.00 | 80 | 1015.3 |
| 20260505062539 | 55 | 276 | 2.0 | 6.0 | 0.00 | 0.00 | 0.00 | 78 | 1015.0 |
| 20260505062011 | 55 | 274 | 2.0 | 6.0 | 0.00 | 0.00 | 0.00 | 78 | 1015.0 |
| 20260505061508 | 55 | 252 | 1.0 | 6.0 | 0.00 | 0.00 | 0.00 | 77 | 1014.9 |
| 20260505061009 | 55 | 234 | 1.0 | 6.0 | 0.00 | 0.00 | 0.00 | 77 | 1014.9 |
| 20260505060959 | 55 | 255 | 1.0 | 5.0 | 0.00 | 0.00 | 0.00 | 77 | 1014.9 |
| 20260505060501 | 55 | 274 | 1.0 | 6.0 | 0.00 | 0.00 | 0.00 | 77 | 1014.9 |
| 20260505055456 | 55 | 264 | 1.0 | 3.0 | 0.00 | 0.00 | 0.00 | 77 | 1014.9 |
| 20260505054957 | 55 | 237 | 1.0 | 3.0 | 0.00 | 0.00 | 0.00 | 77 | 1014.9 |
| 20260505054457 | 55 | 248 | 2.0 | 7.0 | 0.00 | 0.00 | 0.00 | 78 | 1015.0 |
| 20260505053952 | 55 | 240 | 3.0 | 7.0 | 0.00 | 0.00 | 0.00 | 78 | 1015.0 |
| 20260505053443 | 55 | 294 | 3.0 | 9.0 | 0.00 | 0.00 | 0.00 | 78 | 1015.3 |
| 20260505052944 | 55 | 301 | 2.0 | 9.0 | 0.00 | 0.00 | 0.00 | 78 | 1015.3 |
| 20260505052444 | 55 | 257 | 2.0 | 7.0 | 0.00 | 0.00 | 0.00 | 78 | 1015.3 |
| 20260505051943 | 55 | 255 | 2.0 | 7.0 | 0.00 | 0.00 | 0.00 | 78 | 1015.7 |
| 20260505051441 | 55 | 259 | 2.0 | 6.0 | 0.00 | 0.00 | 0.00 | 78 | 1015.7 |
| 20260505050953 | 56 | 282 | 3.0 | 7.0 | 0.00 | 0.00 | 0.00 | 80 | 1015.8 |
| 20260505050943 | 55 | 276 | 3.0 | 10.0 | 0.00 | 0.00 | 0.00 | 79 | 1015.7 |
| 20260505050443 | 55 | 297 | 2.0 | 10.0 | 0.00 | 0.00 | 0.00 | 79 | 1015.8 |
| 20260505041438 | 57 | 279 | 2.0 | 6.0 | 0.00 | 0.00 | 0.00 | 81 | 1015.3 |
| 20260505040937 | 57 | 277 | 3.0 | 11.0 | 0.00 | 0.00 | 0.00 | 81 | 1015.3 |
| 20260505040446 | 57 | 298 | 3.0 | 7.0 | 0.00 | 0.00 | 0.00 | 80 | 1015.0 |
| 20260505040437 | 57 | 304 | 4.0 | 11.0 | 0.00 | 0.00 | 0.00 | 81 | 1015.0 |
| 20260505035939 | 57 | 295 | 3.0 | 7.0 | 0.00 | 0.00 | 0.00 | 80 | 1015.0 |
| 20260505034945 | 57 | 286 | 2.0 | 6.0 | 0.00 | 0.00 | 0.00 | 79 | 1014.8 |
| 20260505034938 | 57 | 306 | 2.0 | 7.0 | 0.00 | 0.00 | 0.00 | 80 | 1014.8 |
| 20260505033938 | 57 | 252 | 2.0 | 5.0 | 0.00 | 0.00 | 0.00 | 79 | 1014.8 |
| 20260505033438 | 57 | 300 | 2.0 | 7.0 | 0.00 | 0.00 | 0.00 | 79 | 1014.7 |
| 20260505032935 | 57 | 259 | 2.0 | 7.0 | 0.00 | 0.00 | 0.00 | 79 | 1014.7 |
| 20260505032428 | 57 | 252 | 2.0 | 5.0 | 0.00 | 0.00 | 0.00 | 78 | 1014.7 |
| 20260505031927 | 57 | 219 | 3.0 | 9.0 | 0.00 | 0.00 | 0.00 | 78 | 1014.8 |